Greenfield, Missouri
Current Conditions -  °F | °C
As of 3:52 AM on Tuesday 27 Jan 2015 (Local Time) from KSGF Reporting Station
Clear Clear  
Wind Chill: 34°   Ceiling: Unl
Heat Index: 39°   Visibility: 10mi
Dew Point: 31°   Wind: 7mph
Humidity: 73%   Direction: 320°NW
Pressure: 30.04"   Gusts: NA
Location:  37.42°N, 93.84°W
Report Text: KSGF 270952Z 32006KT 10SM CLR 04/M01 A3004 RMK AO2 SLP174 T00391006
Loading
Personal Weather Stations






























Interactive Weather Map New forecast layout! Learn more

10-Day Weather Forecast

Advertisements
Track Severe Weather on mobile